Time;durP1;ratioP1;P1;durP2;ratioP2;P2;SDS_P1;SDS_P2;PMS_P1;PMS_P2;Temp;Humidity;BMP_temperature;BMP_pressure;BME280_temperature;BME280_humidity;BME280_pressure;Samples;Min_cycle;Max_cycle;Signal;HPM_P1;HPM_P2
2022/02/10 00:38:21;;;;;;;431.33;134.90;;;;;;;1.14;100.00;99638.56;5012747;28;20324;-59
2022/02/10 00:40:36;;;;;;;448.20;156.83;;;;;;;1.05;100.00;99632.34;5011646;28;20281;-60
2022/02/10 00:43:04;;;;;;;448.33;153.17;;;;;;;1.04;100.00;99635.66;5022506;28;20725;-58
2022/02/10 00:45:32;;;;;;;454.13;164.60;;;;;;;0.99;100.00;99627.94;5015560;28;21164;-58
2022/02/10 00:48:06;;;;;;;424.60;130.90;;;;;;;0.95;100.00;99625.25;4999792;28;20279;-58
2022/02/10 00:50:34;;;;;;;429.73;128.80;;;;;;;1.01;100.00;99645.66;5018523;28;20316;-58
2022/02/10 00:53:06;;;;;;;434.50;138.90;;;;;;;1.17;100.00;99652.97;5018217;28;20802;-58
2022/02/10 00:55:34;;;;;;;430.73;138.23;;;;;;;1.17;100.00;99652.97;5014179;28;20825;-59
2022/02/10 00:58:04;;;;;;;441.67;167.43;;;;;;;1.20;100.00;99650.53;5016655;28;20380;-55
2022/02/10 01:02:16;;;;;;;449.07;142.33;;;;;;;1.19;100.00;99651.34;5020513;28;20805;-58
2022/02/10 01:14:06;;;;;;;421.73;120.53;;;;;;;0.77;100.00;99651.53;5017291;28;20264;-59
2022/02/10 01:30:11;;;;;;;445.23;128.63;;;;;;;0.91;100.00;99626.81;5015924;28;20753;-55
2022/02/10 01:32:36;;;;;;;462.67;161.37;;;;;;;0.88;100.00;99624.19;5015208;28;20292;-60
2022/02/10 01:35:05;;;;;;;468.37;188.43;;;;;;;0.77;100.00;99623.78;5012005;28;20292;-59
2022/02/10 01:37:30;;;;;;;468.77;204.87;;;;;;;0.67;100.00;99623.41;5014264;28;20068;-60
2022/02/10 01:40:06;;;;;;;442.93;129.47;;;;;;;0.58;100.00;99620.56;5014370;28;20412;-59
2022/02/10 02:04:16;;;;;;;;;;;;;;;0.44;100.00;99579.69;5013902;28;20372;-60
2022/02/10 02:06:44;;;;;;;428.97;153.10;;;;;;;0.39;100.00;99576.13;5014654;28;19913;-60
2022/02/10 02:09:13;;;;;;;438.53;139.10;;;;;;;0.37;100.00;99580.28;5016989;28;20259;-60
2022/02/10 02:11:43;;;;;;;443.70;144.27;;;;;;;0.31;100.00;99580.91;5009833;28;20276;-63
2022/02/10 02:14:14;;;;;;;446.50;139.47;;;;;;;0.35;100.00;99589.44;5017613;28;20278;-60
2022/02/10 02:16:48;;;;;;;464.00;167.87;;;;;;;0.38;100.00;99580.31;5018853;28;20834;-60
2022/02/10 02:19:13;;;;;;;442.60;146.17;;;;;;;0.49;100.00;99585.78;5013165;28;20279;-60
2022/02/10 02:21:42;;;;;;;434.73;127.60;;;;;;;0.44;100.00;99578.03;5015126;28;20252;-59
2022/02/10 02:24:09;;;;;;;439.03;139.30;;;;;;;0.50;100.00;99582.44;5012123;28;20962;-60
2022/02/10 02:26:35;;;;;;;446.83;142.97;;;;;;;0.57;100.00;99579.34;5013510;28;20264;-60
2022/02/10 02:29:04;;;;;;;445.60;127.77;;;;;;;0.54;100.00;99585.94;5016602;28;20268;-60
2022/02/10 02:31:40;;;;;;;445.33;126.40;;;;;;;0.45;100.00;99576.38;5012343;28;20034;-60
2022/02/10 02:37:15;;;;;;;433.63;145.27;;;;;;;0.47;100.00;99578.13;5016237;28;20287;-60
2022/02/10 03:05:08;;;;;;;446.33;129.87;;;;;;;0.64;100.00;99567.78;4946702;29;20855;-59
2022/02/10 03:07:44;;;;;;;439.43;167.03;;;;;;;0.59;100.00;99562.59;4943263;29;20902;-60
2022/02/10 03:12:44;;;;;;;442.02;127.38;;;;;;;0.54;100.00;99548.97;4947213;29;20379;-58
2022/02/10 03:15:21;;;;;;;443.93;127.83;;;;;;;0.62;100.00;99554.28;4946352;29;20466;-60
2022/02/10 03:17:59;;;;;;;443.53;128.27;;;;;;;0.69;100.00;99557.06;5011876;28;20108;-59
2022/02/10 03:20:48;;;;;;;445.80;127.70;;;;;;;0.58;100.00;99553.31;5010289;28;20308;-60
2022/02/10 04:13:14;;;;;;;438.50;121.80;;;;;;;-0.05;100.00;99540.09;5017599;28;20364;-61
2022/02/10 04:20:55;;;;;;;437.87;123.53;;;;;;;-0.11;100.00;99534.81;5015695;28;20249;-59
2022/02/10 04:23:07;;;;;;;437.33;121.33;;;;;;;-0.04;100.00;99534.22;5008045;28;20064;-61
2022/02/10 04:28:29;;;;;;;438.17;121.53;;;;;;;-0.09;100.00;99520.63;5015422;28;20041;-59
2022/02/10 05:35:14;;;;;;;421.33;111.27;;;;;;;-0.30;100.00;99494.63;4852092;29;20745;-59
2022/02/10 05:37:41;;;;;;;423.80;112.60;;;;;;;-0.35;100.00;99486.03;4850824;29;20294;-61
2022/02/10 05:40:13;;;;;;;424.97;111.47;;;;;;;-0.46;100.00;99489.78;4847197;29;20286;-61
2022/02/10 05:45:30;;;;;;;425.80;111.77;;;;;;;-0.33;100.00;99488.59;4851884;29;20369;-62
2022/02/10 05:50:53;;;;;;;424.77;112.03;;;;;;;-0.15;100.00;99484.25;4948942;28;20369;-58
2022/02/10 05:58:20;;;;;;;428.47;114.00;;;;;;;-0.22;100.00;99485.69;4964843;28;20154;-60
2022/02/10 06:51:27;;;;;;;439.00;121.73;;;;;;;0.35;100.00;99483.53;4967516;28;21055;-59
2022/02/10 06:54:23;;;;;;;320.23;88.57;;;;;;;0.45;100.00;99490.63;4970362;28;20265;-60
2022/02/10 07:15:54;;;;;;;440.53;129.53;;;;;;;1.55;100.00;99483.28;5016985;28;20260;-61
2022/02/10 09:06:38;;;;;;;490.23;281.60;;;;;;;7.52;100.00;99401.88;4994740;28;20126;-61
2022/02/10 10:02:16;;;;;;;508.17;393.30;;;;;;;9.65;94.19;99359.50;4867613;29;20051;-59
2022/02/10 10:04:58;;;;;;;507.33;395.00;;;;;;;9.93;93.04;99340.59;4914267;29;20044;-59
2022/02/10 10:10:40;;;;;;;497.73;376.00;;;;;;;9.92;88.68;99325.25;4928485;29;20058;-59
2022/02/10 10:26:39;;;;;;;509.13;405.40;;;;;;;10.30;84.00;99314.81;4935372;29;20564;-58
2022/02/10 10:57:29;;;;;;;516.43;444.50;;;;;;;10.91;76.70;99244.16;4963174;28;20049;-57
2022/02/10 11:42:12;;;;;;;531.93;473.97;;;;;;;11.68;76.91;99178.16;5009281;28;20056;-59
2022/02/10 13:35:00;;;;;;;;;;;;;;;12.71;58.04;99036.69;5010549;28;20083;-58
2022/02/10 14:15:29;;;;;;;634.65;574.75;;;;;;;12.64;57.70;99041.13;4944958;29;20142;-59
2022/02/10 14:29:11;;;;;;;637.13;577.23;;;;;;;13.07;55.53;99035.88;4936645;28;20081;-58
2022/02/10 14:31:37;;;;;;;638.43;578.47;;;;;;;13.07;55.83;99035.06;5010963;28;20026;-61
2022/02/10 14:34:03;;;;;;;635.43;575.67;;;;;;;13.01;56.01;99027.44;5014590;28;20031;-60
2022/02/10 14:36:33;;;;;;;636.23;576.37;;;;;;;12.82;56.02;99022.69;5014333;28;20518;-60
2022/02/10 16:18:43;;;;;;;521.00;462.60;;;;;;;9.78;91.42;99004.41;5010940;28;20037;-59
2022/02/10 16:21:11;;;;;;;516.80;454.10;;;;;;;9.65;92.94;98995.97;5010149;28;20093;-58
2022/02/10 16:23:37;;;;;;;512.03;425.90;;;;;;;9.46;94.26;98990.16;5012737;28;20379;-58
2022/02/10 16:28:35;;;;;;;521.77;443.60;;;;;;;9.40;95.78;98999.63;5014053;28;20044;-58
2022/02/10 16:31:01;;;;;;;521.97;442.93;;;;;;;9.28;96.84;98997.16;5010947;28;20029;-59
2022/02/10 16:33:29;;;;;;;524.07;438.90;;;;;;;9.18;97.80;98998.94;5014968;28;20037;-59
2022/02/10 16:35:55;;;;;;;519.23;437.53;;;;;;;9.07;98.32;98987.94;5012816;28;20102;-60
2022/02/10 16:38:20;;;;;;;524.00;431.90;;;;;;;9.07;100.00;98995.63;5011568;28;20148;-59
2022/02/10 16:40:45;;;;;;;515.60;405.10;;;;;;;9.05;100.00;98987.09;5010395;28;20038;-60
2022/02/10 16:43:13;;;;;;;511.80;391.60;;;;;;;8.97;100.00;98999.94;5011684;28;20120;-60
2022/02/10 16:45:38;;;;;;;516.00;409.87;;;;;;;8.88;100.00;98989.78;5015496;28;20026;-62
2022/02/10 16:48:04;;;;;;;518.03;410.07;;;;;;;8.80;100.00;98988.97;5015177;28;20033;-59
2022/02/10 16:50:30;;;;;;;503.37;379.20;;;;;;;8.69;100.00;98985.66;5011556;28;20479;-60
2022/02/10 16:53:07;;;;;;;505.67;384.60;;;;;;;8.63;100.00;98993.34;5013882;28;20064;-60
2022/02/10 16:58:13;;;;;;;520.20;394.20;;;;;;;8.58;100.00;98993.34;5014838;28;20084;-60
2022/02/10 17:14:06;;;;;;;507.27;362.10;;;;;;;8.28;100.00;98996.88;5015232;28;20040;-60
2022/02/10 17:14:50;;;;;;;510.90;369.60;;;;;;;8.03;100.00;98990.16;5013954;28;20088;-58
2022/02/10 17:27:31;;;;;;;492.70;331.30;;;;;;;7.78;100.00;99008.94;5013410;28;20266;-60
2022/02/10 17:46:12;;;;;;;491.47;314.33;;;;;;;7.60;100.00;99020.03;5012844;28;20132;-59
2022/02/10 17:53:55;;;;;;;504.47;337.57;;;;;;;7.50;100.00;99014.94;5014726;28;20140;-62
2022/02/10 17:56:22;;;;;;;503.17;319.00;;;;;;;7.55;100.00;99015.78;5011188;28;20057;-61
2022/02/10 17:58:48;;;;;;;496.23;305.93;;;;;;;7.56;100.00;99025.97;5013437;28;20021;-57
2022/02/10 18:01:14;;;;;;;504.83;332.57;;;;;;;7.46;100.00;99026.00;5016582;28;20029;-61
2022/02/10 18:03:40;;;;;;;500.73;313.17;;;;;;;7.35;100.00;99036.19;5016580;28;20472;-60
2022/02/10 18:08:42;;;;;;;510.53;328.30;;;;;;;7.07;100.00;99037.88;5011490;28;20395;-61
2022/02/10 18:16:18;;;;;;;493.37;293.70;;;;;;;6.73;100.00;99048.84;5012156;28;20048;-57
2022/02/10 18:18:52;;;;;;;493.67;288.60;;;;;;;6.62;100.00;99053.88;5014836;28;20029;-59
2022/02/10 18:24:04;;;;;;;502.57;307.47;;;;;;;6.52;100.00;99051.31;5012476;28;20034;-59
2022/02/10 19:02:28;;;;;;;485.00;258.57;;;;;;;5.74;100.00;99094.09;4943662;28;20112;-58
2022/02/10 19:09:55;;;;;;;480.87;252.07;;;;;;;5.65;100.00;99108.44;4945783;28;20046;-59
2022/02/10 19:12:29;;;;;;;483.13;249.63;;;;;;;5.55;100.00;99111.75;4944186;29;20051;-60
2022/02/10 19:15:03;;;;;;;479.77;247.43;;;;;;;5.45;100.00;99115.91;4946301;29;20035;-59
2022/02/10 19:17:29;;;;;;;478.23;239.17;;;;;;;5.38;100.00;99121.78;4946520;29;20093;-59
2022/02/10 19:19:54;;;;;;;474.40;232.73;;;;;;;5.39;100.00;99116.69;4944495;29;20106;-59
2022/02/10 19:22:21;;;;;;;478.47;236.20;;;;;;;5.38;100.00;99125.16;4943377;29;20778;-59
2022/02/10 19:24:47;;;;;;;472.60;230.43;;;;;;;5.29;100.00;99124.22;4970284;28;20041;-59
2022/02/10 19:27:16;;;;;;;478.37;237.00;;;;;;;5.26;100.00;99135.19;5017763;28;20026;-58
2022/02/10 19:29:42;;;;;;;476.00;232.10;;;;;;;5.23;100.00;99130.09;4997925;28;20033;-58
2022/02/10 19:32:12;;;;;;;476.00;226.13;;;;;;;5.11;100.00;99132.50;5015203;28;20041;-59
2022/02/10 19:34:38;;;;;;;490.37;244.23;;;;;;;5.15;100.00;99134.25;5018070;28;20037;-59
2022/02/10 19:37:04;;;;;;;496.37;244.37;;;;;;;5.04;100.00;99130.75;5017379;28;20030;-59
2022/02/10 19:39:30;;;;;;;491.13;243.77;;;;;;;4.94;100.00;99134.00;5015353;28;20052;-60
2022/02/10 19:41:55;;;;;;;482.07;232.07;;;;;;;4.86;100.00;99143.22;5013732;28;20475;-60
2022/02/10 19:44:21;;;;;;;471.27;219.50;;;;;;;4.74;100.00;99148.16;5018223;28;20072;-57
2022/02/10 19:46:46;;;;;;;473.93;221.13;;;;;;;4.68;100.00;99153.16;5016868;28;20443;-59
2022/02/10 19:49:19;;;;;;;474.57;222.50;;;;;;;4.56;100.00;99144.56;5014723;28;20050;-61
2022/02/10 19:51:47;;;;;;;480.43;218.40;;;;;;;4.47;100.00;99148.66;5015744;28;20026;-59
2022/02/10 19:54:15;;;;;;;485.40;230.90;;;;;;;4.50;100.00;99159.69;5018038;28;20261;-59
2022/02/10 19:56:40;;;;;;;478.67;223.37;;;;;;;4.43;100.00;99157.06;5016375;28;20127;-60
2022/02/10 19:59:07;;;;;;;471.17;217.10;;;;;;;4.63;100.00;99155.63;5013254;28;20430;-57
2022/02/10 20:01:32;;;;;;;469.77;212.27;;;;;;;4.59;100.00;99148.81;5012924;28;20061;-60
2022/02/10 20:04:03;;;;;;;473.87;218.03;;;;;;;4.47;100.00;99148.66;5017972;28;20037;-59
2022/02/10 20:06:28;;;;;;;469.77;212.33;;;;;;;4.41;100.00;99153.66;5018420;28;20854;-61
2022/02/10 20:08:54;;;;;;;464.70;205.20;;;;;;;4.32;100.00;99158.59;5013924;28;20072;-60
2022/02/10 20:11:20;;;;;;;465.37;199.93;;;;;;;4.21;100.00;99150.81;5014419;28;20913;-62
2022/02/10 20:13:46;;;;;;;463.17;197.40;;;;;;;4.08;100.00;99159.09;5017249;28;20042;-58
2022/02/10 20:16:13;;;;;;;460.13;196.60;;;;;;;4.01;100.00;99153.06;5014730;28;20269;-60
2022/02/10 20:18:38;;;;;;;460.37;194.00;;;;;;;3.99;100.00;99152.19;5013258;28;20041;-59
2022/02/10 20:21:05;;;;;;;461.40;194.90;;;;;;;4.17;100.00;99160.91;5016487;28;20719;-58
2022/02/10 20:23:33;;;;;;;460.30;191.60;;;;;;;4.17;100.00;99158.38;5017897;28;20411;-57
2022/02/10 20:26:00;;;;;;;464.40;202.37;;;;;;;4.14;100.00;99160.03;5013843;28;20263;-59
2022/02/10 20:28:27;;;;;;;470.07;205.43;;;;;;;4.13;100.00;99160.00;5011784;28;20272;-59
2022/02/10 20:30:52;;;;;;;473.63;211.77;;;;;;;4.14;100.00;99159.19;5018559;28;20766;-60
2022/02/10 20:33:21;;;;;;;470.10;208.10;;;;;;;4.06;100.00;99158.22;5017857;28;20275;-60
2022/02/10 20:35:50;;;;;;;469.27;203.83;;;;;;;3.91;100.00;99161.34;5015038;28;20088;-60
2022/02/10 20:38:18;;;;;;;470.83;204.37;;;;;;;3.80;100.00;99147.66;5013950;28;20068;-60
2022/02/10 20:40:45;;;;;;;475.47;207.63;;;;;;;3.87;100.00;99161.28;5015341;28;20287;-60
2022/02/10 20:43:11;;;;;;;468.17;202.37;;;;;;;3.80;100.00;99150.22;5018242;28;20304;-59
2022/02/10 20:45:37;;;;;;;469.07;201.23;;;;;;;3.75;100.00;99148.41;5014337;28;20255;-59
2022/02/10 20:48:04;;;;;;;463.73;189.90;;;;;;;3.70;100.00;99153.41;5012673;28;20041;-57
2022/02/10 20:50:31;;;;;;;460.47;189.27;;;;;;;3.65;100.00;99152.47;5015497;28;20312;-59
2022/02/10 20:52:57;;;;;;;461.23;192.37;;;;;;;3.58;100.00;99151.53;5016423;28;21122;-60
2022/02/10 20:55:24;;;;;;;463.23;191.33;;;;;;;3.54;100.00;99156.50;5012871;28;20384;-59
2022/02/10 20:57:49;;;;;;;464.13;191.83;;;;;;;3.48;100.00;99139.50;5011381;28;20292;-58
2022/02/10 21:00:19;;;;;;;461.77;190.50;;;;;;;3.44;100.00;99147.03;5014032;28;20268;-59
2022/02/10 21:02:47;;;;;;;460.33;187.20;;;;;;;3.35;100.00;99142.69;5005082;28;20126;-59
2022/02/10 21:05:37;;;;;;;462.50;188.67;;;;;;;3.29;100.00;99155.22;5007404;28;20398;-57
2022/02/10 21:08:18;;;;;;;463.33;189.07;;;;;;;3.21;100.00;99142.44;5015306;28;20616;-59
2022/02/10 21:10:44;;;;;;;468.13;189.43;;;;;;;3.17;100.00;99139.81;4999700;28;20363;-59
2022/02/10 21:13:11;;;;;;;467.17;189.90;;;;;;;3.10;100.00;99140.50;5012103;28;20265;-58
2022/02/10 21:15:47;;;;;;;466.57;187.07;;;;;;;3.03;100.00;99139.56;5012242;28;20029;-60
2022/02/10 21:18:14;;;;;;;466.57;188.00;;;;;;;2.95;100.00;99146.16;5018131;28;20299;-60
2022/02/10 21:20:42;;;;;;;465.60;186.13;;;;;;;2.84;100.00;99146.78;5014861;28;20916;-56
2022/02/10 21:25:38;;;;;;;456.33;173.97;;;;;;;2.79;100.00;99139.09;5012164;28;20343;-57
2022/02/10 21:28:13;;;;;;;459.73;173.90;;;;;;;2.75;100.00;99140.72;5016228;28;20595;-57
2022/02/10 21:30:39;;;;;;;456.03;172.47;;;;;;;2.70;100.00;99147.34;5014658;28;20268;-61
2022/02/10 21:33:07;;;;;;;454.60;168.80;;;;;;;2.70;100.00;99144.81;5010415;28;20332;-59
2022/02/10 21:36:22;;;;;;;449.73;163.03;;;;;;;2.68;100.00;99141.38;5013280;28;20029;-59
2022/02/10 21:38:31;;;;;;;453.90;169.33;;;;;;;2.76;100.00;99137.31;5014866;28;20293;-58
2022/02/10 21:57:22;;;;;;;451.07;156.83;;;;;;;2.78;100.00;99116.25;4984052;28;20265;-55
2022/02/10 22:16:39;;;;;;;449.17;156.50;;;;;;;2.91;100.00;99124.13;4910878;29;20763;-57
2022/02/10 22:19:18;;;;;;;449.47;156.17;;;;;;;2.84;100.00;99129.06;4908651;29;20687;-55
2022/02/10 22:21:50;;;;;;;452.60;159.03;;;;;;;2.87;100.00;99136.69;4906250;29;20280;-58
2022/02/10 22:24:17;;;;;;;448.53;157.87;;;;;;;2.90;100.00;99134.22;4909674;29;20778;-58
2022/02/10 22:26:43;;;;;;;448.57;157.73;;;;;;;3.06;100.00;99133.69;4909495;29;20284;-57
2022/02/10 22:29:18;;;;;;;450.67;164.13;;;;;;;3.11;100.00;99145.63;4936410;28;20275;-58
2022/02/10 22:32:14;;;;;;;447.20;157.75;;;;;;;3.16;100.00;99154.16;4944449;28;20297;-55
2022/02/10 22:34:41;;;;;;;;;;;;;;;3.21;100.00;99155.09;4936239;28;20055;-56
2022/02/10 22:37:10;;;;;;;448.90;155.10;;;;;;;3.18;100.00;99156.72;4948206;28;20004;-57
2022/02/10 22:39:41;;;;;;;447.07;155.63;;;;;;;3.18;100.00;99159.25;4969175;28;20305;-58
2022/02/10 22:42:07;;;;;;;451.63;160.37;;;;;;;3.16;100.00;99149.09;4983360;28;20277;-57
2022/02/10 22:44:35;;;;;;;450.53;163.73;;;;;;;3.18;100.00;99146.59;4986160;28;20270;-55
2022/02/10 22:47:04;;;;;;;457.03;171.47;;;;;;;3.24;100.00;99146.69;4980536;28;20270;-59
2022/02/10 22:49:29;;;;;;;459.07;172.67;;;;;;;3.37;100.00;99146.09;4980911;28;20368;-56
2022/02/10 22:51:55;;;;;;;457.20;170.20;;;;;;;3.47;100.00;99150.50;5011760;28;20814;-57
2022/02/10 22:54:20;;;;;;;458.17;174.17;;;;;;;3.50;100.00;99145.47;5014621;28;20522;-58
2022/02/10 22:56:47;;;;;;;461.73;178.27;;;;;;;3.54;100.00;99147.22;5002348;28;20026;-55
2022/02/10 22:59:13;;;;;;;453.93;170.13;;;;;;;3.58;100.00;99143.06;5011361;28;20732;-57
2022/02/10 23:01:40;;;;;;;459.30;172.23;;;;;;;3.68;100.00;99147.47;5015071;28;20295;-56
2022/02/10 23:04:06;;;;;;;451.77;169.13;;;;;;;3.69;100.00;99141.59;5016039;28;20802;-53
2022/02/10 23:06:32;;;;;;;450.70;171.83;;;;;;;3.69;100.00;99144.94;5012684;28;20257;-56
2022/02/10 23:08:59;;;;;;;445.40;169.23;;;;;;;3.72;100.00;99135.69;5013886;28;20863;-57
2022/02/10 23:11:31;;;;;;;453.60;177.20;;;;;;;3.76;100.00;99140.84;5017046;28;20232;-58
2022/02/10 23:13:58;;;;;;;448.07;169.03;;;;;;;3.90;100.00;99149.53;5019310;28;20658;-57
2022/02/10 23:16:25;;;;;;;441.40;161.47;;;;;;;3.92;100.00;99141.94;5013503;28;20267;-55
2022/02/10 23:18:51;;;;;;;436.67;161.27;;;;;;;3.96;100.00;99139.47;5013927;28;20369;-53
2022/02/10 23:21:18;;;;;;;444.50;169.67;;;;;;;3.98;100.00;99135.28;5019381;28;20627;-56
2022/02/10 23:23:48;;;;;;;454.57;176.67;;;;;;;4.01;100.00;99142.94;5016954;28;20260;-55
2022/02/10 23:26:17;;;;;;;454.00;176.17;;;;;;;3.98;100.00;99140.34;5014033;28;20261;-54
2022/02/10 23:28:48;;;;;;;468.37;197.20;;;;;;;4.01;100.00;99134.47;5015925;28;20264;-56
2022/02/10 23:31:16;;;;;;;474.77;200.60;;;;;;;4.04;100.00;99139.56;5018084;28;20269;-58
2022/02/10 23:33:44;;;;;;;462.10;188.70;;;;;;;4.01;100.00;99131.94;5015808;28;20264;-58
2022/02/10 23:38:52;;;;;;;455.73;186.47;;;;;;;3.95;100.00;99131.81;5021760;28;20341;-55
2022/02/10 23:44:14;;;;;;;452.20;177.23;;;;;;;3.83;100.00;99126.56;5015693;28;20284;-56
2022/02/10 23:46:41;;;;;;;453.90;178.43;;;;;;;3.85;100.00;99119.84;5015868;28;20276;-58
2022/02/10 23:49:07;;;;;;;454.23;183.27;;;;;;;3.81;100.00;99120.63;5019840;28;20292;-56
2022/02/10 23:51:39;;;;;;;443.00;171.97;;;;;;;3.79;100.00;99128.19;5018475;28;20306;-57
2022/02/10 23:54:05;;;;;;;453.90;180.67;;;;;;;3.80;100.00;99116.38;5013584;28;20269;-55
2022/02/10 23:56:35;;;;;;;447.20;173.53;;;;;;;3.95;100.00;99114.06;5015157;28;20427;-55
2022/02/10 23:59:18;;;;;;;440.83;170.90;;;;;;;3.93;100.00;99115.75;5015915;28;20699;-58
